createdAt,value
2016-11-02T00:00:00.974Z,80.44
2016-11-02T00:01:14.050Z,80.44
2016-11-02T00:02:27.665Z,80.54
2016-11-02T00:03:40.820Z,80.54
2016-11-02T00:04:53.832Z,80.73
2016-11-02T00:06:07.095Z,80.82
2016-11-02T00:07:20.074Z,80.44
2016-11-02T00:08:33.727Z,81.02
2016-11-02T00:09:46.192Z,81.12
2016-11-02T00:10:58.713Z,81.27
2016-11-02T00:12:11.921Z,80.98
2016-11-02T00:13:25.031Z,80.98
2016-11-02T00:14:38.862Z,81.37
2016-11-02T00:15:52.011Z,80.98
2016-11-02T00:17:04.083Z,81.27
2016-11-02T00:18:17.159Z,81.46
2016-11-02T00:19:30.308Z,80.88
2016-11-02T00:20:44.004Z,80.79
2016-11-02T00:21:57.123Z,81.07
2016-11-02T00:23:10.709Z,80.88
2016-11-02T00:24:24.205Z,81.07
2016-11-02T00:25:38.042Z,81.07
2016-11-02T00:26:51.158Z,80.69
2016-11-02T00:28:04.894Z,80.79
2016-11-02T00:29:17.367Z,80.98
2016-11-02T00:30:31.207Z,80.49
2016-11-02T00:31:45.021Z,80.69
2016-11-02T00:32:58.090Z,80.2
2016-11-02T00:34:11.292Z,80.2
2016-11-02T00:35:24.998Z,79.72
2016-11-02T00:36:38.658Z,79.72
2016-11-02T00:37:51.789Z,79.24
2016-11-02T00:39:05.495Z,78.94
2016-11-02T00:40:18.473Z,79.14
2016-11-02T00:41:32.013Z,79.14
2016-11-02T00:42:45.774Z,78.94
2016-11-02T00:43:59.331Z,77.98
2016-11-02T00:45:13.069Z,77.88
2016-11-02T00:46:25.621Z,77.88
2016-11-02T00:47:38.618Z,77.88
2016-11-02T00:48:51.679Z,77.88
2016-11-02T00:50:04.789Z,77.88
2016-11-02T00:51:18.402Z,77.36
2016-11-02T00:52:31.531Z,77.65
2016-11-02T00:53:44.280Z,77.78
2016-11-02T00:54:58.001Z,77.75
2016-11-02T00:56:11.615Z,77.36
2016-11-02T00:57:24.799Z,77.65
2016-11-02T00:58:38.637Z,77.75
2016-11-02T00:59:53.932Z,77.36
2016-11-02T01:01:07.735Z,77.59
2016-11-02T01:02:20.307Z,77.36
2016-11-02T01:03:33.860Z,77.36
2016-11-02T01:04:47.390Z,76.97
2016-11-02T01:05:59.466Z,76.97
2016-11-02T01:07:12.555Z,77.45
2016-11-02T01:08:25.109Z,77.55
2016-11-02T01:09:37.077Z,77.36
2016-11-02T01:10:50.229Z,77.36
2016-11-02T01:12:03.793Z,77.36
2016-11-02T01:13:17.473Z,77.65
2016-11-02T01:14:31.146Z,77.65
2016-11-02T01:15:44.657Z,78.03
2016-11-02T01:16:57.884Z,77.36
2016-11-02T01:18:10.473Z,77.17
2016-11-02T01:19:24.157Z,77.45
2016-11-02T01:20:36.924Z,77.36
2016-11-02T01:21:49.473Z,77.45
2016-11-02T01:23:03.217Z,77.45
2016-11-02T01:24:16.372Z,77.36
2016-11-02T01:25:30.076Z,77.75
2016-11-02T01:26:42.563Z,77.75
2016-11-02T01:27:56.310Z,77.65
2016-11-02T01:29:09.373Z,77.55
2016-11-02T01:30:22.367Z,77.84
2016-11-02T01:31:35.851Z,77.75
2016-11-02T01:32:49.474Z,77.84
2016-11-02T01:34:02.571Z,77.75
2016-11-02T01:35:15.580Z,78.33
2016-11-02T01:36:28.743Z,78.13
2016-11-02T01:37:40.970Z,78.13
2016-11-02T01:38:54.790Z,78.13
2016-11-02T01:40:07.957Z,78.13
2016-11-02T01:41:21.110Z,77.84
2016-11-02T01:42:33.602Z,78.42
2016-11-02T01:43:46.633Z,78.61
2016-11-02T01:44:59.695Z,78.23
2016-11-02T01:46:13.193Z,78.29
2016-11-02T01:47:26.226Z,78.42
2016-11-02T01:48:38.265Z,79.1
2016-11-02T01:49:51.401Z,78.23
2016-11-02T01:51:03.961Z,78.61
2016-11-02T01:52:16.002Z,79.2
2016-11-02T01:53:29.234Z,78.38
2016-11-02T01:54:41.834Z,78.71
2016-11-02T01:55:54.950Z,79.1
2016-11-02T01:57:07.984Z,78.91
2016-11-02T01:58:21.048Z,79.35
2016-11-02T01:59:34.268Z,78.91
2016-11-02T02:00:46.829Z,79.35
2016-11-02T02:02:00.741Z,79.45
2016-11-02T02:03:13.264Z,79.54
2016-11-02T02:04:27.034Z,79.45
2016-11-02T02:05:40.601Z,79.35
2016-11-02T02:06:53.656Z,79.64
2016-11-02T02:08:07.324Z,79.45
2016-11-02T02:09:20.377Z,79.35
2016-11-02T02:10:32.455Z,79.45
2016-11-02T02:11:45.048Z,79.54
2016-11-02T02:12:58.117Z,79.64
2016-11-02T02:14:11.148Z,79.74
2016-11-02T02:15:24.892Z,80.12
2016-11-02T02:16:38.621Z,79.74
2016-11-02T02:17:52.262Z,79.74
2016-11-02T02:19:05.229Z,80.22
2016-11-02T02:20:17.823Z,80.41
2016-11-02T02:21:31.444Z,80.41
2016-11-02T02:22:44.963Z,80.41
2016-11-02T02:23:58.562Z,80.61
2016-11-02T02:25:11.634Z,80.41
2016-11-02T02:26:25.302Z,81.09
2016-11-02T02:27:38.491Z,80.99
2016-11-02T02:28:52.085Z,80.9
2016-11-02T02:30:05.108Z,80.71
2016-11-02T02:31:18.243Z,81.19
2016-11-02T02:32:31.352Z,80.9
2016-11-02T02:33:44.005Z,81.38
2016-11-02T02:34:57.837Z,81.19
2016-11-02T02:36:10.579Z,81.38
2016-11-02T02:37:24.148Z,81.48
2016-11-02T02:38:37.701Z,81.77
2016-11-02T02:39:51.387Z,81.87
2016-11-02T02:41:04.448Z,81.57
2016-11-02T02:42:17.048Z,81.67
2016-11-02T02:43:30.691Z,81.96
2016-11-02T02:44:43.790Z,82.06
2016-11-02T02:45:57.374Z,82.15
2016-11-02T02:47:11.057Z,82.06
2016-11-02T02:48:24.121Z,81.96
2016-11-02T02:49:37.201Z,81.77
2016-11-02T02:50:49.207Z,81.96
2016-11-02T02:52:02.206Z,82.15
2016-11-02T02:53:15.852Z,82.15
2016-11-02T02:54:28.984Z,82.45
2016-11-02T02:55:42.492Z,82.45
2016-11-02T02:56:56.067Z,82.6
2016-11-02T02:58:09.740Z,82.64
2016-11-02T02:59:22.294Z,82.98
2016-11-02T03:00:35.946Z,83.12
2016-11-02T03:01:48.062Z,82.89
2016-11-02T03:03:01.164Z,83.08
2016-11-02T03:04:14.846Z,82.79
2016-11-02T03:05:27.899Z,83.18
2016-11-02T03:06:41.504Z,82.98
2016-11-02T03:07:55.062Z,82.98
2016-11-02T03:09:08.159Z,83.08
2016-11-02T03:10:21.219Z,83.27
2016-11-02T03:11:34.242Z,83.85
2016-11-02T03:12:47.383Z,83.66
2016-11-02T03:14:00.518Z,83.47
2016-11-02T03:15:14.055Z,83.95
2016-11-02T03:16:27.693Z,83.47
2016-11-02T03:17:40.775Z,83.85
2016-11-02T03:18:53.798Z,83.95
2016-11-02T03:20:07.399Z,84.14
2016-11-02T03:21:21.035Z,84.24
2016-11-02T03:22:34.576Z,83.75
2016-11-02T03:23:47.583Z,84.14
2016-11-02T03:25:01.186Z,84.14
2016-11-02T03:26:14.727Z,83.95
2016-11-02T03:27:28.357Z,84.05
2016-11-02T03:28:40.837Z,84.05
2016-11-02T03:29:54.308Z,84.53
2016-11-02T03:31:21.810Z,84.63
2016-11-02T03:32:35.386Z,84.58
2016-11-02T03:33:49.021Z,84.53
2016-11-02T03:35:02.051Z,84.58
2016-11-02T03:36:15.639Z,84.48
2016-11-02T03:37:28.148Z,85.06
2016-11-02T03:38:41.789Z,85.16
2016-11-02T03:39:54.329Z,85.06
2016-11-02T03:41:07.911Z,85.06
2016-11-02T03:42:21.005Z,85.26
2016-11-02T03:43:34.109Z,85.26
2016-11-02T03:44:47.732Z,85.16
2016-11-02T03:46:00.772Z,85.36
2016-11-02T03:47:14.299Z,84.97
2016-11-02T03:48:26.808Z,85.45
2016-11-02T03:49:39.896Z,85.36
2016-11-02T03:50:52.443Z,85.74
2016-11-02T03:52:04.937Z,85.94
2016-11-02T03:53:18.026Z,85.84
2016-11-02T03:54:31.631Z,85.84
2016-11-02T03:55:44.658Z,85.64
2016-11-02T03:56:58.205Z,85.45
2016-11-02T03:58:11.803Z,85.64
2016-11-02T03:59:25.352Z,85.64
2016-11-02T04:00:37.886Z,85.55
2016-11-02T04:01:51.514Z,86.13
2016-11-02T04:03:05.062Z,86.13
2016-11-02T04:04:18.139Z,86.22
2016-11-02T04:05:31.776Z,86.13
2016-11-02T04:06:44.860Z,86.13
2016-11-02T04:07:58.506Z,86.13
2016-11-02T04:09:11.081Z,86.03
2016-11-02T04:10:24.710Z,86.22
2016-11-02T04:11:37.765Z,86.61
2016-11-02T04:12:50.870Z,86.61
2016-11-02T04:14:03.489Z,86.71
2016-11-02T04:15:17.086Z,86.52
2016-11-02T04:16:30.742Z,86.52
2016-11-02T04:17:43.817Z,86.71
2016-11-02T04:18:57.435Z,86.71
2016-11-02T04:20:11.091Z,86.8
2016-11-02T04:21:24.177Z,86.71
2016-11-02T04:22:37.808Z,86.71
2016-11-02T04:23:51.400Z,86.71
2016-11-02T04:25:05.039Z,86.8
2016-11-02T04:26:18.299Z,86.71
2016-11-02T04:27:31.941Z,86.47
2016-11-02T04:28:45.557Z,86.71
2016-11-02T04:29:59.160Z,86.52
2016-11-02T04:31:12.806Z,86.61
2016-11-02T04:32:25.384Z,86.52
2016-11-02T04:33:38.965Z,86.28
2016-11-02T04:34:52.579Z,86.47
2016-11-02T04:36:06.258Z,86.32
2016-11-02T04:37:19.907Z,87.34
2016-11-02T04:38:33.058Z,86.32
2016-11-02T04:39:46.080Z,87.15
2016-11-02T04:40:58.600Z,87.05
2016-11-02T04:42:10.642Z,86.96
2016-11-02T04:43:23.703Z,87
2016-11-02T04:44:36.781Z,86.96
2016-11-02T04:45:49.308Z,87.05
2016-11-02T04:47:02.964Z,86.76
2016-11-02T04:48:16.032Z,86.66
2016-11-02T04:49:28.624Z,87.15
2016-11-02T04:50:42.334Z,87.15
2016-11-02T04:51:55.404Z,87.05
2016-11-02T04:53:07.966Z,87.05
2016-11-02T04:54:21.023Z,87.15
2016-11-02T04:55:34.641Z,87.15
2016-11-02T04:56:48.246Z,86.86
2016-11-02T04:58:01.284Z,86.76
2016-11-02T04:59:14.961Z,86.76
2016-11-02T05:00:28.028Z,86.66
2016-11-02T05:01:41.094Z,86.66
2016-11-02T05:02:54.721Z,87.15
2016-11-02T05:04:08.357Z,87.15
2016-11-02T05:05:21.440Z,87.24
2016-11-02T05:06:35.054Z,87.05
2016-11-02T05:07:48.639Z,87.15
2016-11-02T05:09:01.209Z,86.86
2016-11-02T05:10:14.793Z,87.34
2016-11-02T05:11:27.352Z,87.15
2016-11-02T05:12:40.917Z,87.73
2016-11-02T05:13:54.485Z,87.63
2016-11-02T05:15:07.011Z,87.44
2016-11-02T05:16:20.125Z,87.82
2016-11-02T05:17:32.684Z,87.73
2016-11-02T05:18:46.318Z,87.63
2016-11-02T05:19:59.936Z,88.31
2016-11-02T05:21:13.060Z,88.02
2016-11-02T05:22:26.689Z,88.17
2016-11-02T05:23:39.785Z,88.21
2016-11-02T05:24:52.914Z,88.21
2016-11-02T05:26:06.483Z,88.26
2016-11-02T05:27:19.027Z,87.92
2016-11-02T05:28:32.626Z,88.36
2016-11-02T05:29:45.700Z,88.45
2016-11-02T05:30:58.350Z,88.17
2016-11-02T05:32:11.435Z,88.65
2016-11-02T05:33:25.071Z,88.84
2016-11-02T05:34:37.653Z,89.13
2016-11-02T05:35:50.244Z,89.13
2016-11-02T05:37:03.973Z,89.03
2016-11-02T05:38:17.061Z,89.13
2016-11-02T05:39:30.675Z,89.32
2016-11-02T05:40:43.254Z,89.03
2016-11-02T05:41:56.853Z,89.13
2016-11-02T05:43:10.487Z,90
2016-11-02T05:44:23.044Z,89.61
2016-11-02T05:45:36.147Z,89.42
2016-11-02T05:46:49.797Z,89.81
2016-11-02T05:48:02.329Z,89.81
2016-11-02T05:49:15.885Z,89.76
2016-11-02T05:50:29.468Z,89.9
2016-11-02T05:51:43.169Z,89.51
2016-11-02T05:52:56.805Z,89.71
2016-11-02T05:54:09.872Z,90
2016-11-02T05:55:23.565Z,90
2016-11-02T05:56:36.679Z,89.61
2016-11-02T05:57:50.282Z,89.81
2016-11-02T05:59:03.881Z,90.09
2016-11-02T06:00:16.979Z,89.61
2016-11-02T06:01:29.560Z,89.81
2016-11-02T06:02:43.164Z,90.09
2016-11-02T06:03:56.174Z,90.09
2016-11-02T06:05:08.759Z,90
2016-11-02T06:06:21.813Z,89.9
2016-11-02T06:07:35.473Z,89.9
2016-11-02T06:08:49.083Z,89.86
2016-11-02T06:10:01.674Z,89.42
2016-11-02T06:11:14.786Z,89.13
2016-11-02T06:12:28.306Z,89.42
2016-11-02T06:13:41.412Z,89.13
2016-11-02T06:14:55.092Z,88.75
2016-11-02T06:16:08.189Z,88.93
2016-11-02T06:17:21.785Z,89.13
2016-11-02T06:18:34.871Z,89.42
2016-11-02T06:19:48.426Z,89.32
2016-11-02T06:21:00.970Z,89.18
2016-11-02T06:22:13.520Z,89.23
2016-11-02T06:23:27.208Z,89.23
2016-11-02T06:24:40.285Z,89.23
2016-11-02T06:25:52.343Z,89.03
2016-11-02T06:27:05.970Z,89.03
2016-11-02T06:28:19.555Z,89.13
2016-11-02T06:29:32.712Z,88.75
2016-11-02T06:30:46.398Z,88.93
2016-11-02T06:31:59.012Z,88.7
2016-11-02T06:33:11.556Z,88.79
2016-11-02T06:34:24.720Z,88.51
2016-11-02T06:35:37.766Z,88.26
2016-11-02T06:36:51.382Z,87.97
2016-11-02T06:38:04.470Z,88.12
2016-11-02T06:39:17.036Z,88.07
2016-11-02T06:40:30.619Z,88.26
2016-11-02T06:41:44.284Z,88.17
2016-11-02T06:42:57.911Z,87.88
2016-11-02T06:44:11.497Z,88.07
2016-11-02T06:45:25.146Z,87.78
2016-11-02T06:46:37.660Z,87.74
2016-11-02T06:47:51.269Z,88.17
2016-11-02T06:49:03.792Z,87.88
2016-11-02T06:50:15.309Z,87.93
2016-11-02T06:51:27.390Z,87.83
2016-11-02T06:52:40.515Z,88.7
2016-11-02T06:53:54.085Z,88.41
2016-11-02T06:55:06.645Z,88.12
2016-11-02T06:56:19.759Z,88.02
2016-11-02T06:57:33.459Z,88.22
2016-11-02T06:58:47.139Z,87.74
2016-11-02T06:59:59.731Z,88.22
2016-11-02T07:01:12.822Z,87.93
2016-11-02T07:02:25.376Z,87.74
2016-11-02T07:03:38.977Z,88.12
2016-11-02T07:04:52.051Z,87.93
2016-11-02T07:06:05.668Z,88.02
2016-11-02T07:07:19.247Z,88.02
2016-11-02T07:08:32.911Z,87.83
2016-11-02T07:09:45.977Z,87.83
2016-11-02T07:10:57.980Z,88.12
2016-11-02T07:12:09.983Z,88.22
2016-11-02T07:13:22.448Z,88.02
2016-11-02T07:14:35.510Z,87.64
2016-11-02T07:15:48.576Z,87.54
2016-11-02T07:17:01.226Z,87.35
2016-11-02T07:18:13.801Z,88.22
2016-11-02T07:19:25.294Z,88.02
2016-11-02T07:20:38.370Z,88.12
2016-11-02T07:21:52.037Z,88.02
2016-11-02T07:23:04.568Z,87.74
2016-11-02T07:24:18.213Z,88.02
2016-11-02T07:25:31.292Z,88.02
2016-11-02T07:26:43.820Z,88.02
2016-11-02T07:27:57.449Z,88.12
2016-11-02T07:29:09.986Z,87.93
2016-11-02T07:30:23.049Z,88.12
2016-11-02T07:31:35.518Z,88.12
2016-11-02T07:32:47.001Z,87.83
2016-11-02T07:34:00.141Z,87.74
2016-11-02T07:35:13.715Z,88.51
2016-11-02T07:36:26.792Z,88.41
2016-11-02T07:37:39.857Z,88.31
2016-11-02T07:38:52.362Z,88.31
2016-11-02T07:40:05.913Z,88.51
2016-11-02T07:41:19.083Z,88.31
2016-11-02T07:42:31.650Z,88.41
2016-11-02T07:43:45.200Z,88.41
2016-11-02T07:44:58.333Z,88.31
2016-11-02T07:46:11.956Z,88.7
2016-11-02T07:47:24.499Z,88.41
2016-11-02T07:48:38.124Z,88.31
2016-11-02T07:49:50.773Z,88.7
2016-11-02T07:51:03.362Z,88.79
2016-11-02T07:52:16.918Z,88.89
2016-11-02T07:53:29.454Z,89.09
2016-11-02T07:54:42.498Z,88.6
2016-11-02T07:55:55.517Z,88.41
2016-11-02T07:57:08.583Z,88.6
2016-11-02T07:58:21.663Z,88.89
2016-11-02T07:59:35.343Z,88.89
2016-11-02T08:00:47.813Z,89.09
2016-11-02T08:02:00.930Z,89.28
2016-11-02T08:03:14.058Z,88.85
2016-11-02T08:04:26.647Z,89.04
2016-11-02T08:05:38.693Z,89.81
2016-11-02T08:06:52.327Z,89.81
2016-11-02T08:08:04.915Z,89.43
2016-11-02T08:09:17.513Z,89.72
2016-11-02T08:10:31.214Z,89.95
2016-11-02T08:11:44.935Z,89.47
2016-11-02T08:12:58.580Z,89.91
2016-11-02T08:14:11.631Z,89.72
2016-11-02T08:15:25.229Z,89.81
2016-11-02T08:16:37.753Z,89.67
2016-11-02T08:17:50.779Z,88.95
2016-11-02T08:19:03.792Z,89.62
2016-11-02T08:20:15.841Z,89.09
2016-11-02T08:21:29.471Z,89.09
2016-11-02T08:22:42.556Z,89.09
2016-11-02T08:23:55.582Z,88.89
2016-11-02T08:25:08.112Z,88.89
2016-11-02T08:26:21.233Z,89.18
2016-11-02T08:27:34.271Z,88.99
2016-11-02T08:28:47.350Z,89.86
2016-11-02T08:30:00.884Z,89.76
2016-11-02T08:31:14.491Z,89.57
2016-11-02T08:32:28.022Z,89.76
2016-11-02T08:33:41.602Z,89.76
2016-11-02T08:34:54.194Z,89.57
2016-11-02T08:36:07.229Z,89.67
2016-11-02T08:37:20.842Z,89.57
2016-11-02T08:38:34.468Z,89.09
2016-11-02T08:39:46.980Z,88.99
2016-11-02T08:41:00.551Z,88.51
2016-11-02T08:42:14.175Z,88.17
2016-11-02T08:43:27.232Z,87.1
2016-11-02T08:44:40.299Z,86.47
2016-11-02T08:45:53.367Z,86.38
2016-11-02T08:47:06.421Z,86.66
2016-11-02T08:48:20.082Z,85.99
2016-11-02T08:49:32.115Z,84.93
2016-11-02T08:50:45.664Z,84.64
2016-11-02T08:51:58.762Z,84.58
2016-11-02T08:53:10.751Z,84.1
2016-11-02T08:54:23.324Z,83.23
2016-11-02T08:55:35.882Z,82.6
2016-11-02T08:56:48.967Z,81.34
2016-11-02T08:58:01.508Z,81.19
2016-11-02T08:59:15.119Z,80.36
2016-11-02T09:00:27.142Z,79.97
2016-11-02T09:01:40.783Z,79.1
2016-11-02T09:02:54.392Z,78.46
2016-11-02T09:04:07.456Z,78.17
2016-11-02T09:05:20.543Z,77.63
2016-11-02T09:06:33.103Z,77.63
2016-11-02T09:07:46.223Z,77.44
2016-11-02T09:08:59.748Z,76.76
2016-11-02T09:10:12.841Z,76.51
2016-11-02T09:11:25.363Z,76.31
2016-11-02T09:12:38.957Z,75.87
2016-11-02T09:13:52.557Z,74.7
2016-11-02T09:15:05.597Z,74.64
2016-11-02T09:16:18.704Z,73.86
2016-11-02T09:17:31.190Z,73.86
2016-11-02T09:18:44.774Z,73.48
2016-11-02T09:19:57.845Z,73.42
2016-11-02T09:21:10.938Z,73.8
2016-11-02T09:22:22.927Z,74.06
2016-11-02T09:23:35.996Z,74.93
2016-11-02T09:24:49.564Z,74.7
2016-11-02T09:26:01.570Z,75.19
2016-11-02T09:27:14.724Z,75.96
2016-11-02T09:28:27.229Z,75.83
2016-11-02T09:29:40.295Z,76.06
2016-11-02T09:30:52.793Z,75.19
2016-11-02T09:32:05.880Z,75.48
2016-11-02T09:33:19.463Z,75.28
2016-11-02T09:34:32.530Z,75.9
2016-11-02T09:35:45.634Z,76.15
2016-11-02T09:36:58.777Z,77.19
2016-11-02T09:38:11.296Z,76.99
2016-11-02T09:39:24.960Z,77.57
2016-11-02T09:40:38.561Z,77.76
2016-11-02T09:41:51.677Z,77.96
2016-11-02T09:43:04.740Z,78.41
2016-11-02T09:44:17.322Z,79.17
2016-11-02T09:45:30.403Z,79.57
2016-11-02T09:46:42.923Z,79.66
2016-11-02T09:47:55.483Z,79.91
2016-11-02T09:49:08.026Z,80.11
2016-11-02T09:50:21.676Z,80.2
2016-11-02T09:51:34.682Z,80.49
2016-11-02T09:52:46.734Z,80.88
2016-11-02T09:53:59.243Z,81.07
2016-11-02T09:55:12.840Z,80.88
2016-11-02T09:56:26.459Z,81.27
2016-11-02T09:57:40.014Z,81.56
2016-11-02T09:58:52.000Z,81.23
2016-11-02T10:00:05.569Z,81.13
2016-11-02T10:01:17.561Z,81.52
2016-11-02T10:02:30.675Z,81.52
2016-11-02T10:03:43.763Z,81.9
2016-11-02T10:04:56.794Z,82.1
2016-11-02T10:06:09.906Z,81.9
2016-11-02T10:07:23.009Z,82.1
2016-11-02T10:08:35.479Z,82
2016-11-02T10:09:49.177Z,82.04
2016-11-02T10:11:02.191Z,82.29
2016-11-02T10:12:14.708Z,82.33
2016-11-02T10:13:28.275Z,82.04
2016-11-02T10:14:41.335Z,81.9
2016-11-02T10:15:53.357Z,82.1
2016-11-02T10:17:07.066Z,81.56
2016-11-02T10:18:19.088Z,81.85
2016-11-02T10:19:32.140Z,81.27
2016-11-02T10:20:45.747Z,81.46
2016-11-02T10:21:58.263Z,81.07
2016-11-02T10:23:10.805Z,81.3
2016-11-02T10:24:24.402Z,80.63
2016-11-02T10:25:37.416Z,79.95
2016-11-02T10:26:51.092Z,79.95
2016-11-02T10:28:04.150Z,80.63
2016-11-02T10:29:17.212Z,80.54
2016-11-02T10:30:29.738Z,80.24
2016-11-02T10:31:43.395Z,80.24
2016-11-02T10:32:55.943Z,80.34
2016-11-02T10:34:08.014Z,80.15
2016-11-02T10:35:20.629Z,80.44
2016-11-02T10:36:33.647Z,80.15
2016-11-02T10:37:45.695Z,80.19
2016-11-02T10:38:58.781Z,79.99
2016-11-02T10:40:11.301Z,79.57
2016-11-02T10:41:23.777Z,79.9
2016-11-02T10:42:37.365Z,79.7
2016-11-02T10:43:49.381Z,79.6
2016-11-02T10:45:02.487Z,79.8
2016-11-02T10:46:15.518Z,79.85
2016-11-02T10:47:27.485Z,79.8
2016-11-02T10:48:40.597Z,79.9
2016-11-02T10:49:53.693Z,79.8
2016-11-02T10:51:06.742Z,79.22
2016-11-02T10:52:20.386Z,79.6
2016-11-02T10:53:33.443Z,79.6
2016-11-02T10:54:46.563Z,79.12
2016-11-02T10:57:10.044Z,78.54
2016-11-02T10:58:22.560Z,78.38
2016-11-02T10:59:35.636Z,77.7
2016-11-02T11:00:47.670Z,78.29
2016-11-02T11:02:00.204Z,78.38
2016-11-02T11:03:13.249Z,78.29
2016-11-02T11:04:26.373Z,78.19
2016-11-02T11:05:40.056Z,78.19
2016-11-02T11:06:52.523Z,77.8
2016-11-02T11:08:06.091Z,77.8
2016-11-02T11:09:19.806Z,77.55
2016-11-02T11:10:32.365Z,76.97
2016-11-02T11:11:45.426Z,77.26
2016-11-02T11:12:58.519Z,77.16
2016-11-02T11:14:11.639Z,76.87
2016-11-02T11:15:24.273Z,76.78
2016-11-02T11:16:37.267Z,75.84
2016-11-02T11:17:50.312Z,74.87
2016-11-02T11:19:03.384Z,74.33
2016-11-02T11:20:16.927Z,73.1
2016-11-02T11:21:30.566Z,72.65
2016-11-02T11:22:43.667Z,72.17
2016-11-02T11:23:56.690Z,71.91
2016-11-02T11:25:09.725Z,72.11
2016-11-02T11:26:22.272Z,71.33
2016-11-02T11:27:34.860Z,70.84
2016-11-02T11:28:47.503Z,70.65
2016-11-02T11:30:00.673Z,70.58
2016-11-02T11:31:13.807Z,69.71
2016-11-02T11:32:25.460Z,68.57
2016-11-02T11:33:37.517Z,67.73
2016-11-02T11:34:50.608Z,68.06
2016-11-02T11:36:04.133Z,67.47
2016-11-02T11:37:17.199Z,67.38
2016-11-02T11:38:29.714Z,66.63
2016-11-02T11:39:42.829Z,65.95
2016-11-02T11:40:55.908Z,65.85
2016-11-02T11:42:09.535Z,66.05
2016-11-02T11:43:22.153Z,65.56
2016-11-02T11:44:35.796Z,65.11
2016-11-02T11:45:48.882Z,64.52
2016-11-02T11:47:01.439Z,64.55
2016-11-02T11:48:13.994Z,64.45
2016-11-02T11:49:25.994Z,64.36
2016-11-02T11:50:39.642Z,63.96
2016-11-02T11:51:52.703Z,64.65
2016-11-02T11:53:06.265Z,64.62
2016-11-02T11:54:19.345Z,64.42
2016-11-02T11:55:32.436Z,64.42
2016-11-02T11:56:44.946Z,64.26
2016-11-02T11:57:58.037Z,64.36
2016-11-02T11:59:11.629Z,63.57
2016-11-02T12:00:24.707Z,63.67
2016-11-02T12:01:37.789Z,62.73
2016-11-02T12:02:50.832Z,63.41
2016-11-02T12:04:03.949Z,63.12
2016-11-02T12:05:17.076Z,63.12
2016-11-02T12:06:30.130Z,62.89
2016-11-02T12:07:42.705Z,62.53
2016-11-02T12:08:54.836Z,62.34
2016-11-02T12:10:08.001Z,62.56
2016-11-02T12:11:21.137Z,63.31
2016-11-02T12:12:34.833Z,63.21
2016-11-02T12:13:46.845Z,62.53
2016-11-02T12:14:59.323Z,62.56
2016-11-02T12:16:11.826Z,61.79
2016-11-02T12:17:24.925Z,61.82
2016-11-02T12:18:37.519Z,61.74
2016-11-02T12:19:49.507Z,61.06
2016-11-02T12:21:02.591Z,61.82
2016-11-02T12:22:16.217Z,62.66
2016-11-02T12:23:29.308Z,62.63
2016-11-02T12:24:41.830Z,63.18
2016-11-02T12:25:55.397Z,62.34
2016-11-02T12:27:07.981Z,62.15
2016-11-02T12:28:21.666Z,62.24
2016-11-02T12:29:34.733Z,61.79
2016-11-02T12:30:47.807Z,62.18
2016-11-02T12:32:00.903Z,62.44
2016-11-02T12:33:14.138Z,61.85
2016-11-02T12:34:26.716Z,62.08
2016-11-02T12:35:39.332Z,61.69
2016-11-02T12:36:52.420Z,61.79
2016-11-02T12:38:05.523Z,61.49
2016-11-02T12:39:18.557Z,61.82
2016-11-02T12:40:30.078Z,61.62
2016-11-02T12:41:43.215Z,61.62
2016-11-02T12:42:56.213Z,61.52
2016-11-02T12:44:09.324Z,61.59
2016-11-02T12:45:22.453Z,62.73
2016-11-02T12:46:34.984Z,62.53
2016-11-02T12:47:48.562Z,62.53
2016-11-02T12:49:01.697Z,62.73
2016-11-02T12:50:14.295Z,63.12
2016-11-02T12:51:25.790Z,63.8
2016-11-02T12:52:38.844Z,63.57
2016-11-02T12:53:51.911Z,63.87
2016-11-02T12:55:05.514Z,63.48
2016-11-02T12:56:18.656Z,63.38
2016-11-02T12:57:31.160Z,63.28
2016-11-02T12:58:44.713Z,63.51
2016-11-02T12:59:58.337Z,63.31
2016-11-02T13:01:10.362Z,62.53
2016-11-02T13:02:22.397Z,62.53
2016-11-02T13:03:35.484Z,61.95
2016-11-02T13:04:48.599Z,61.69
2016-11-02T13:06:02.248Z,61.82
2016-11-02T13:07:14.857Z,61.43
2016-11-02T13:08:28.420Z,61.49
2016-11-02T13:09:41.009Z,61.98
2016-11-02T13:10:53.031Z,61.69
2016-11-02T13:12:05.570Z,61.79
2016-11-02T13:13:17.620Z,61.88
2016-11-02T13:14:30.693Z,61.69
2016-11-02T13:15:41.663Z,62.24
2016-11-02T13:16:55.277Z,62.44
2016-11-02T13:18:08.418Z,62.05
2016-11-02T13:19:22.066Z,62.21
2016-11-02T13:20:34.617Z,61.92
2016-11-02T13:21:46.047Z,61.46
2016-11-02T13:22:58.562Z,60.78
2016-11-02T13:24:11.628Z,61.3
2016-11-02T13:25:23.079Z,61.66
2016-11-02T13:26:36.667Z,60.88
2016-11-02T13:27:49.268Z,60.42
2016-11-02T13:29:01.807Z,60.03
2016-11-02T13:30:14.470Z,59.57
2016-11-02T13:31:27.566Z,58.5
2016-11-02T13:32:40.582Z,57.93
2016-11-02T13:33:53.135Z,58.72
2016-11-02T13:35:04.610Z,58.62
2016-11-02T13:36:18.202Z,59.86
2016-11-02T13:37:30.225Z,60.81
2016-11-02T13:38:43.310Z,59.93
2016-11-02T13:39:56.911Z,59.05
2016-11-02T13:41:10.002Z,58.91
2016-11-02T13:42:23.055Z,58.62
2016-11-02T13:43:35.578Z,59.67
2016-11-02T13:44:49.248Z,59.47
2016-11-02T13:46:02.359Z,59.96
2016-11-02T13:47:15.469Z,60.03
2016-11-02T13:48:28.061Z,60.03
2016-11-02T13:49:41.782Z,60.19
2016-11-02T13:50:55.438Z,60.49
2016-11-02T13:52:08.563Z,60.49
2016-11-02T13:53:21.624Z,60.58
2016-11-02T13:54:34.718Z,60.29
2016-11-02T13:55:46.697Z,60.52
2016-11-02T13:56:59.252Z,60.22
2016-11-02T13:58:12.331Z,59.93
2016-11-02T13:59:26.009Z,60.06
2016-11-02T14:00:39.138Z,59.3
2016-11-02T14:01:51.703Z,59.59
2016-11-02T14:03:04.853Z,59.86
2016-11-02T14:04:17.424Z,60.25
2016-11-02T14:05:30.097Z,60.16
2016-11-02T14:06:43.669Z,58.81
2016-11-02T14:07:57.258Z,58.98
2016-11-02T14:09:09.752Z,59.18
2016-11-02T14:10:23.348Z,59.18
2016-11-02T14:11:36.979Z,58.89
2016-11-02T14:12:49.466Z,58.5
2016-11-02T14:14:01.981Z,58.47
2016-11-02T14:15:14.066Z,59.15
2016-11-02T14:16:26.648Z,59.05
2016-11-02T14:17:38.669Z,58.95
2016-11-02T14:18:51.714Z,59.22
2016-11-02T14:20:04.852Z,59.12
2016-11-02T14:21:17.415Z,58.04
2016-11-02T14:22:30.503Z,58.34
2016-11-02T14:23:44.101Z,58.73
2016-11-02T14:24:57.727Z,57.85
2016-11-02T14:26:10.772Z,58.04
2016-11-02T14:27:23.872Z,57.85
2016-11-02T14:28:36.933Z,58.53
2016-11-02T14:29:48.401Z,58.63
2016-11-02T14:31:01.473Z,59.22
2016-11-02T14:32:13.863Z,58.63
2016-11-02T14:33:26.375Z,58.63
2016-11-02T14:34:39.438Z,58.53
2016-11-02T14:35:52.513Z,58.83
2016-11-02T14:37:06.065Z,59.25
2016-11-02T14:38:18.659Z,58.76
2016-11-02T14:39:31.714Z,58.56
2016-11-02T14:40:45.340Z,58.69
2016-11-02T14:41:57.338Z,57.52
2016-11-02T14:43:10.444Z,57.71
2016-11-02T14:44:23.991Z,57.88
2016-11-02T14:45:37.098Z,58.86
2016-11-02T14:46:50.686Z,58.86
2016-11-02T14:48:04.309Z,58.76
2016-11-02T14:49:16.837Z,58.79
2016-11-02T14:50:28.364Z,59.15
2016-11-02T14:51:41.534Z,59.22
2016-11-02T14:52:54.231Z,59.31
2016-11-02T14:54:06.673Z,59.54
2016-11-02T14:55:20.264Z,60
2016-11-02T14:56:32.813Z,58.73
2016-11-02T14:57:45.882Z,59.12
2016-11-02T14:58:58.963Z,58.63
2016-11-02T15:00:12.585Z,59.12
2016-11-02T15:01:25.125Z,59.22
2016-11-02T15:02:37.764Z,59.12
2016-11-02T15:03:50.785Z,59.22
2016-11-02T15:05:04.440Z,59.02
2016-11-02T15:06:16.984Z,58.83
2016-11-02T15:07:28.969Z,58.73
2016-11-02T15:08:41.561Z,58.92
2016-11-02T15:09:55.182Z,59.05
2016-11-02T15:11:07.772Z,59.05
2016-11-02T15:12:21.369Z,58.83
2016-11-02T15:13:34.923Z,58.95
2016-11-02T15:14:47.011Z,59.12
2016-11-02T15:16:00.109Z,58.47
2016-11-02T15:17:13.143Z,58.95
2016-11-02T15:18:26.819Z,59.54
2016-11-02T15:19:40.462Z,59.05
2016-11-02T15:20:53.554Z,58.66
2016-11-02T15:22:06.096Z,58.86
2016-11-02T15:23:19.161Z,58.53
2016-11-02T15:24:32.240Z,59.41
2016-11-02T15:25:45.323Z,60.19
2016-11-02T15:26:58.333Z,60.1
2016-11-02T15:28:11.945Z,60.1
2016-11-02T15:29:25.553Z,59.31
2016-11-02T15:30:38.056Z,60.1
2016-11-02T15:31:51.220Z,59.61
2016-11-02T15:33:04.799Z,59.09
2016-11-02T15:34:18.442Z,59.22
2016-11-02T15:35:31.017Z,59.02
2016-11-02T15:36:44.088Z,58.92
2016-11-02T15:37:57.732Z,58.24
2016-11-02T15:39:11.346Z,58.83
2016-11-02T15:40:23.359Z,58.47
2016-11-02T15:41:36.981Z,58.66
2016-11-02T15:42:49.583Z,57.98
2016-11-02T15:44:03.145Z,57.52
2016-11-02T15:45:15.239Z,57.23